createdAt,value
2022-12-23T00:01:25.486Z,7.80
2022-12-23T00:03:54.270Z,7.90
2022-12-23T00:06:23.915Z,7.90
2022-12-23T00:08:58.690Z,7.90
2022-12-23T00:11:28.394Z,7.90
2022-12-23T00:14:20.528Z,7.90
2022-12-23T00:16:50.307Z,7.90
2022-12-23T00:19:18.838Z,7.90
2022-12-23T00:21:49.098Z,7.90
2022-12-23T00:24:17.325Z,7.90
2022-12-23T00:26:45.527Z,7.90
2022-12-23T00:29:13.733Z,7.90
2022-12-23T00:31:41.995Z,7.90
2022-12-23T00:34:11.878Z,7.80
2022-12-23T00:36:40.945Z,7.90
2022-12-23T00:39:30.939Z,7.90
2022-12-23T00:42:16.547Z,7.90
2022-12-23T00:44:44.774Z,7.90
2022-12-23T00:47:32.972Z,7.80
2022-12-23T00:50:00.245Z,7.80
2022-12-23T00:52:28.463Z,7.90
2022-12-23T00:54:58.553Z,7.90
2022-12-23T00:57:26.850Z,7.90
2022-12-23T00:59:55.057Z,7.90
2022-12-23T01:02:40.726Z,7.90
2022-12-23T01:05:37.546Z,7.90
2022-12-23T01:08:07.121Z,7.90
2022-12-23T01:10:37.537Z,7.90
2022-12-23T01:13:05.844Z,7.90
2022-12-23T01:15:34.807Z,7.90
2022-12-23T01:18:03.061Z,7.90
2022-12-23T01:20:31.326Z,7.90
2022-12-23T01:22:59.769Z,7.90
2022-12-23T01:25:27.982Z,7.90
2022-12-23T01:27:57.552Z,7.90
2022-12-23T01:30:26.041Z,7.90
2022-12-23T01:32:54.185Z,7.90
2022-12-23T01:35:22.379Z,7.90
2022-12-23T01:37:50.696Z,7.90
2022-12-23T01:40:18.901Z,7.80
2022-12-23T01:42:47.415Z,7.90
2022-12-23T01:45:20.866Z,7.90
2022-12-23T01:47:54.508Z,7.90
2022-12-23T01:50:26.626Z,7.90
2022-12-23T01:53:06.846Z,7.90
2022-12-23T01:55:41.142Z,7.90
2022-12-23T01:58:14.276Z,7.90
2022-12-23T02:01:10.498Z,7.90
2022-12-23T02:03:44.981Z,7.90
2022-12-23T02:06:37.509Z,7.90
2022-12-23T02:09:19.091Z,7.80
2022-12-23T02:12:38.315Z,7.80
2022-12-23T02:15:33.017Z,7.80
2022-12-23T02:18:33.810Z,7.80
2022-12-23T02:21:23.912Z,7.80
2022-12-23T02:24:33.790Z,7.80
2022-12-23T02:27:11.235Z,7.80
2022-12-23T02:30:09.577Z,7.90
2022-12-23T02:33:19.881Z,7.90
2022-12-23T02:35:56.901Z,7.90
2022-12-23T02:38:30.791Z,7.90
2022-12-23T02:41:10.175Z,7.90
2022-12-23T02:43:45.850Z,7.90
2022-12-23T02:46:19.167Z,7.90
2022-12-23T02:48:52.879Z,7.90
2022-12-23T02:51:23.346Z,7.90
2022-12-23T02:53:56.024Z,7.90
2022-12-23T02:56:26.967Z,7.90
2022-12-23T02:58:59.543Z,7.90
2022-12-23T03:01:31.670Z,8.00
2022-12-23T03:04:01.607Z,8.00
2022-12-23T03:06:34.127Z,8.00
2022-12-23T03:09:02.684Z,8.00
2022-12-23T03:11:40.814Z,7.90
2022-12-23T03:14:33.409Z,7.90
2022-12-23T03:17:15.717Z,7.90
2022-12-23T03:19:52.796Z,7.90
2022-12-23T03:22:26.417Z,7.90
2022-12-23T03:25:02.327Z,7.90
2022-12-23T03:27:35.662Z,7.90
2022-12-23T03:30:07.239Z,7.90
2022-12-23T03:32:40.221Z,7.90
2022-12-23T03:35:12.337Z,7.90
2022-12-23T03:37:45.923Z,7.90
2022-12-23T03:40:19.943Z,7.90
2022-12-23T03:42:54.367Z,7.90
2022-12-23T03:45:38.640Z,7.90
2022-12-23T03:48:15.159Z,7.90
2022-12-23T03:50:47.410Z,7.90
2022-12-23T03:53:21.218Z,7.90
2022-12-23T03:55:55.602Z,7.90
2022-12-23T03:58:36.512Z,7.90
2022-12-23T04:01:11.989Z,7.90
2022-12-23T04:03:55.992Z,7.90
2022-12-23T04:06:32.927Z,8.00
2022-12-23T04:09:02.856Z,7.90
2022-12-23T04:11:31.304Z,8.00
2022-12-23T04:13:59.491Z,7.90
2022-12-23T04:16:28.627Z,7.90
2022-12-23T04:18:57.203Z,7.90
2022-12-23T04:21:25.409Z,7.90
2022-12-23T04:23:55.041Z,7.90
2022-12-23T04:26:23.251Z,7.90
2022-12-23T04:28:51.446Z,7.90
2022-12-23T04:31:19.787Z,7.80
2022-12-23T04:33:48.807Z,7.80
2022-12-23T04:36:17.053Z,7.80
2022-12-23T04:38:45.223Z,7.80
2022-12-23T04:41:14.938Z,7.70
2022-12-23T04:43:45.397Z,7.70
2022-12-23T04:46:18.439Z,7.70
2022-12-23T04:48:46.616Z,7.70
2022-12-23T04:51:14.799Z,7.70
2022-12-23T04:53:43.019Z,7.70
2022-12-23T04:56:11.178Z,7.70
2022-12-23T04:58:40.878Z,7.60
2022-12-23T05:01:10.954Z,7.60
2022-12-23T05:03:40.168Z,7.60
2022-12-23T05:06:08.814Z,7.60
2022-12-23T05:08:37.174Z,7.50
2022-12-23T05:11:05.636Z,7.50
2022-12-23T05:13:33.836Z,7.50
2022-12-23T05:16:03.637Z,7.40
2022-12-23T05:18:34.353Z,7.40
2022-12-23T05:21:02.568Z,7.40
2022-12-23T05:23:30.757Z,7.40
2022-12-23T05:25:58.958Z,7.40
2022-12-23T05:28:27.236Z,7.40
2022-12-23T05:31:00.429Z,7.40
2022-12-23T05:33:30.705Z,7.40
2022-12-23T05:35:59.745Z,7.30
2022-12-23T05:38:28.417Z,7.40
2022-12-23T05:40:56.559Z,7.30
2022-12-23T05:43:25.130Z,7.40
2022-12-23T05:45:53.804Z,7.40
2022-12-23T05:48:22.455Z,7.40
2022-12-23T05:50:53.082Z,7.40
2022-12-23T05:53:22.171Z,7.40
2022-12-23T05:55:50.439Z,7.40
2022-12-23T05:58:18.738Z,7.40
2022-12-23T06:00:46.935Z,7.50
2022-12-23T06:03:15.340Z,7.40
2022-12-23T06:05:44.081Z,7.40
2022-12-23T06:08:13.659Z,7.40
2022-12-23T06:10:41.864Z,7.40
2022-12-23T06:13:10.020Z,7.50
2022-12-23T06:15:38.200Z,7.50
2022-12-23T06:18:07.043Z,7.50
2022-12-23T06:20:35.385Z,7.50
2022-12-23T06:23:04.247Z,7.50
2022-12-23T06:25:33.971Z,7.60
2022-12-23T06:28:02.197Z,7.60
2022-12-23T06:30:30.400Z,7.50
2022-12-23T06:32:58.695Z,7.50
2022-12-23T06:35:27.074Z,7.50
2022-12-23T06:37:55.248Z,7.50
2022-12-23T06:40:23.435Z,7.50
2022-12-23T06:42:53.001Z,7.50
2022-12-23T06:45:21.281Z,7.60
2022-12-23T06:47:49.425Z,7.60
2022-12-23T06:50:17.744Z,7.50
2022-12-23T06:52:46.273Z,7.50
2022-12-23T06:55:14.493Z,7.50
2022-12-23T06:57:42.704Z,7.50
2022-12-23T07:00:13.959Z,7.50
2022-12-23T07:02:42.322Z,7.50
2022-12-23T07:05:10.930Z,7.50
2022-12-23T07:07:39.135Z,7.50
2022-12-23T07:10:08.836Z,7.50
2022-12-23T07:12:37.056Z,7.50
2022-12-23T07:15:06.445Z,7.50
2022-12-23T07:17:36.270Z,7.40
2022-12-23T07:20:04.563Z,7.50
2022-12-23T07:22:32.737Z,7.50
2022-12-23T07:25:01.022Z,7.50
2022-12-23T07:27:29.165Z,7.50
2022-12-23T07:29:57.404Z,7.60
2022-12-23T07:32:27.815Z,7.70
2022-12-23T07:34:57.457Z,7.70
2022-12-23T07:37:25.660Z,7.60
2022-12-23T07:39:56.624Z,7.60
2022-12-23T07:42:44.201Z,7.60
2022-12-23T07:45:13.070Z,7.70
2022-12-23T07:47:44.301Z,7.70
2022-12-23T07:50:14.619Z,7.70
2022-12-23T07:52:42.802Z,7.70
2022-12-23T07:55:11.392Z,7.70
2022-12-23T07:57:40.763Z,7.70
2022-12-23T08:00:11.895Z,7.70
2022-12-23T08:02:44.219Z,7.70
2022-12-23T08:05:14.786Z,7.70
2022-12-23T08:07:45.080Z,7.80
2022-12-23T08:10:13.920Z,7.80
2022-12-23T08:12:46.484Z,7.70
2022-12-23T08:15:14.753Z,7.80
2022-12-23T08:17:42.953Z,7.80
2022-12-23T08:20:13.204Z,7.80
2022-12-23T08:22:43.864Z,7.90
2022-12-23T08:25:12.142Z,7.90
2022-12-23T08:27:40.469Z,8.00
2022-12-23T08:30:09.916Z,8.00
2022-12-23T08:32:40.557Z,8.00
2022-12-23T08:35:11.253Z,8.00
2022-12-23T08:37:40.863Z,8.00
2022-12-23T08:40:10.382Z,8.10
2022-12-23T08:42:41.730Z,8.10
2022-12-23T08:45:10.687Z,8.10
2022-12-23T08:47:38.904Z,8.10
2022-12-23T08:50:08.295Z,8.20
2022-12-23T08:52:36.507Z,8.30
2022-12-23T08:55:06.453Z,8.30
2022-12-23T08:57:35.979Z,8.40
2022-12-23T09:00:08.669Z,8.40
2022-12-23T09:02:37.031Z,8.40
2022-12-23T09:05:06.050Z,8.40
2022-12-23T09:07:34.252Z,8.40
2022-12-23T09:10:07.356Z,8.50
2022-12-23T09:12:35.609Z,8.50
2022-12-23T09:15:03.980Z,8.60
2022-12-23T09:17:32.328Z,8.60
2022-12-23T09:20:00.563Z,8.60
2022-12-23T09:22:28.815Z,8.60
2022-12-23T09:25:01.374Z,8.70
2022-12-23T09:27:34.655Z,8.70
2022-12-23T09:30:03.523Z,8.70
2022-12-23T09:32:32.679Z,8.80
2022-12-23T09:35:00.848Z,8.80
2022-12-23T09:37:29.029Z,8.80
2022-12-23T09:39:57.211Z,8.80
2022-12-23T09:42:38.439Z,8.80
2022-12-23T09:45:21.066Z,8.80
2022-12-23T09:47:50.887Z,8.80
2022-12-23T09:50:27.058Z,8.90
2022-12-23T09:53:01.006Z,8.90
2022-12-23T09:55:35.731Z,8.90
2022-12-23T09:58:09.919Z,8.90
2022-12-23T10:00:44.379Z,8.90
2022-12-23T10:03:21.995Z,8.90
2022-12-23T10:06:02.478Z,8.90
2022-12-23T10:08:36.083Z,9.00
2022-12-23T10:11:14.348Z,9.00
2022-12-23T10:13:46.338Z,9.00
2022-12-23T10:16:19.499Z,9.00
2022-12-23T10:18:55.030Z,9.00
2022-12-23T10:21:31.390Z,9.00
2022-12-23T10:24:04.513Z,8.90
2022-12-23T10:26:37.986Z,8.90
2022-12-23T10:29:18.979Z,8.90
2022-12-23T10:32:08.438Z,8.90
2022-12-23T10:34:46.794Z,8.90
2022-12-23T10:37:23.471Z,8.80
2022-12-23T10:40:02.877Z,8.80
2022-12-23T10:42:37.408Z,8.80
2022-12-23T10:45:26.006Z,8.80
2022-12-23T10:48:13.717Z,8.80
2022-12-23T10:50:54.879Z,8.80
2022-12-23T10:53:33.331Z,8.80
2022-12-23T10:56:02.266Z,8.80
2022-12-23T10:58:32.265Z,8.80
2022-12-23T11:01:09.928Z,8.70
2022-12-23T11:03:50.108Z,8.70
2022-12-23T11:06:18.687Z,8.70
2022-12-23T11:08:47.361Z,8.70
2022-12-23T11:11:16.351Z,8.60
2022-12-23T11:13:47.147Z,8.70
2022-12-23T11:16:19.866Z,8.70
2022-12-23T11:19:01.978Z,8.70
2022-12-23T11:21:32.236Z,8.70
2022-12-23T11:24:20.269Z,8.70
2022-12-23T11:26:51.530Z,8.70
2022-12-23T11:29:26.003Z,8.70
2022-12-23T11:31:54.490Z,8.60
2022-12-23T11:34:27.240Z,8.70
2022-12-23T11:37:01.835Z,8.60
2022-12-23T11:39:35.914Z,8.60
2022-12-23T11:42:08.540Z,8.60
2022-12-23T11:44:41.723Z,8.60
2022-12-23T11:47:29.369Z,8.60
2022-12-23T11:50:01.271Z,8.60
2022-12-23T11:52:30.898Z,8.60
2022-12-23T11:55:01.047Z,8.60
2022-12-23T11:57:39.163Z,8.60
2022-12-23T12:00:18.647Z,8.50
2022-12-23T12:02:49.059Z,8.50
2022-12-23T12:05:26.064Z,8.50
2022-12-23T12:07:59.506Z,8.40
2022-12-23T12:10:30.532Z,8.40
2022-12-23T12:13:02.604Z,8.40
2022-12-23T12:15:42.915Z,8.40
2022-12-23T12:18:14.530Z,8.40
2022-12-23T12:20:47.117Z,8.40
2022-12-23T12:23:21.397Z,8.40
2022-12-23T12:25:54.321Z,8.30
2022-12-23T12:28:26.047Z,8.40
2022-12-23T12:30:58.864Z,8.30
2022-12-23T12:33:32.458Z,8.30
2022-12-23T12:36:13.828Z,8.40
2022-12-23T12:38:44.344Z,8.40
2022-12-23T12:41:19.408Z,8.30
2022-12-23T12:43:53.727Z,8.30
2022-12-23T12:46:30.056Z,8.30
2022-12-23T12:49:04.703Z,8.30
2022-12-23T12:51:42.048Z,8.30
2022-12-23T12:54:20.897Z,8.30
2022-12-23T12:56:54.565Z,8.30
2022-12-23T12:59:27.093Z,8.30
2022-12-23T13:02:06.930Z,8.30
2022-12-23T13:05:12.622Z,8.20
2022-12-23T13:07:55.156Z,8.20
2022-12-23T13:10:36.640Z,8.20
2022-12-23T13:13:17.957Z,8.20
2022-12-23T13:15:51.090Z,8.30
2022-12-23T13:18:31.995Z,8.20
2022-12-23T13:21:06.794Z,8.20
2022-12-23T13:23:44.432Z,8.10
2022-12-23T13:26:21.580Z,8.10
2022-12-23T13:28:57.996Z,8.10
2022-12-23T13:31:39.919Z,8.10
2022-12-23T13:34:22.800Z,8.10
2022-12-23T13:36:58.566Z,8.10
2022-12-23T13:39:46.870Z,8.10
2022-12-23T13:42:26.338Z,8.10
2022-12-23T13:44:56.429Z,8.10
2022-12-23T13:47:34.458Z,8.10
2022-12-23T13:50:12.783Z,8.20
2022-12-23T13:52:57.977Z,8.20
2022-12-23T13:55:49.307Z,8.20
2022-12-23T13:58:20.033Z,8.20
2022-12-23T14:00:57.331Z,8.20
2022-12-23T14:03:26.624Z,8.30
2022-12-23T14:05:55.001Z,8.30
2022-12-23T14:08:32.930Z,8.30
2022-12-23T14:11:05.919Z,8.30
2022-12-23T14:13:43.392Z,8.30
2022-12-23T14:16:25.308Z,8.30
2022-12-23T14:19:20.166Z,8.40
2022-12-23T14:21:56.838Z,8.40
2022-12-23T14:24:52.609Z,8.40
2022-12-23T14:27:41.249Z,8.40
2022-12-23T14:30:16.391Z,8.40
2022-12-23T14:32:48.924Z,8.40
2022-12-23T14:35:51.668Z,8.40
2022-12-23T14:38:29.723Z,8.50
2022-12-23T14:41:25.822Z,8.50
2022-12-23T14:43:59.663Z,8.50
2022-12-23T14:46:58.657Z,8.50
2022-12-23T14:49:48.168Z,8.50
2022-12-23T14:52:49.132Z,8.50
2022-12-23T14:55:51.371Z,8.50
2022-12-23T14:58:51.120Z,8.60
2022-12-23T15:01:27.300Z,8.60
2022-12-23T15:04:01.617Z,8.60
2022-12-23T15:06:36.289Z,8.60
2022-12-23T15:09:08.710Z,8.60
2022-12-23T15:11:37.957Z,8.60
2022-12-23T15:14:11.453Z,8.60
2022-12-23T15:16:45.024Z,8.60
2022-12-23T15:19:23.082Z,8.60
2022-12-23T15:21:59.270Z,8.70
2022-12-23T15:24:28.629Z,8.70
2022-12-23T15:27:25.429Z,8.70
2022-12-23T15:29:50.310Z,8.70
2022-12-23T15:32:20.633Z,8.80
2022-12-23T15:34:50.356Z,8.70
2022-12-23T15:37:22.951Z,8.80
2022-12-23T15:39:55.812Z,8.80
2022-12-23T15:42:31.314Z,8.80
2022-12-23T15:44:59.803Z,8.80
2022-12-23T15:47:32.738Z,8.80
2022-12-23T15:50:01.641Z,8.90
2022-12-23T15:52:31.625Z,8.80
2022-12-23T15:55:14.009Z,8.80
2022-12-23T15:57:50.413Z,8.90
2022-12-23T16:00:21.469Z,8.90
2022-12-23T16:03:02.079Z,8.90
2022-12-23T16:05:33.056Z,8.90
2022-12-23T16:08:12.211Z,9.00
2022-12-23T16:10:41.592Z,9.00
2022-12-23T16:13:18.029Z,9.00
2022-12-23T16:15:47.256Z,9.00
2022-12-23T16:18:22.829Z,9.00
2022-12-23T16:20:54.666Z,9.00
2022-12-23T16:23:23.719Z,9.00
2022-12-23T16:25:55.526Z,9.00
2022-12-23T16:28:30.553Z,9.00
2022-12-23T16:30:59.716Z,9.00
2022-12-23T16:33:37.018Z,9.00
2022-12-23T16:36:20.560Z,9.10
2022-12-23T16:38:52.386Z,9.00
2022-12-23T16:41:21.239Z,9.00
2022-12-23T16:43:52.646Z,9.00
2022-12-23T16:46:23.691Z,9.00
2022-12-23T16:48:55.774Z,9.00
2022-12-23T16:51:25.880Z,9.00
2022-12-23T16:53:56.394Z,9.00
2022-12-23T16:56:28.045Z,9.00
2022-12-23T16:58:58.482Z,9.00
2022-12-23T17:01:30.286Z,8.90
2022-12-23T17:03:59.931Z,9.00
2022-12-23T17:06:28.491Z,9.00
2022-12-23T17:08:57.279Z,9.00
2022-12-23T17:11:37.830Z,8.90
2022-12-23T17:14:13.548Z,8.90
2022-12-23T17:16:47.241Z,9.00
2022-12-23T17:19:21.885Z,8.90
2022-12-23T17:21:56.610Z,8.90
2022-12-23T17:24:26.842Z,8.90
2022-12-23T17:26:56.836Z,8.90
2022-12-23T17:29:25.622Z,8.90
2022-12-23T17:31:54.616Z,8.90
2022-12-23T17:34:25.809Z,8.90
2022-12-23T17:36:54.444Z,8.80
2022-12-23T17:39:23.263Z,8.90
2022-12-23T17:41:51.602Z,8.90
2022-12-23T17:44:20.378Z,9.00
2022-12-23T17:46:49.152Z,9.00
2022-12-23T17:49:17.534Z,9.00
2022-12-23T17:51:47.309Z,8.90
2022-12-23T17:54:23.675Z,9.00
2022-12-23T17:56:52.898Z,8.90
2022-12-23T17:59:21.638Z,8.90
2022-12-23T18:01:50.296Z,8.90
2022-12-23T18:04:18.826Z,8.90
2022-12-23T18:06:48.438Z,9.00
2022-12-23T18:09:16.825Z,9.00
2022-12-23T18:11:46.397Z,9.00
2022-12-23T18:14:19.502Z,9.00
2022-12-23T18:16:47.840Z,9.00
2022-12-23T18:19:19.237Z,9.00
2022-12-23T18:21:49.236Z,8.90
2022-12-23T18:24:17.523Z,8.90
2022-12-23T18:26:46.123Z,8.90
2022-12-23T18:29:14.448Z,8.90
2022-12-23T18:31:51.163Z,8.90
2022-12-23T18:34:21.277Z,8.80
2022-12-23T18:36:52.553Z,8.80
2022-12-23T18:39:21.287Z,8.90
2022-12-23T18:41:49.610Z,8.80
2022-12-23T18:44:20.570Z,8.80
2022-12-23T18:46:49.661Z,8.80
2022-12-23T18:49:17.997Z,8.80
2022-12-23T18:51:46.238Z,8.80
2022-12-23T18:54:16.980Z,8.80
2022-12-23T18:56:45.561Z,8.70
2022-12-23T18:59:22.519Z,8.70
2022-12-23T19:01:56.237Z,8.70
2022-12-23T19:04:24.651Z,8.70
2022-12-23T19:06:53.398Z,8.60
2022-12-23T19:09:24.786Z,8.60
2022-12-23T19:11:55.700Z,8.50
2022-12-23T19:14:24.128Z,8.40
2022-12-23T19:16:54.594Z,8.40
2022-12-23T19:19:23.390Z,8.50
2022-12-23T19:21:51.646Z,8.40
2022-12-23T19:24:20.113Z,8.30
2022-12-23T19:26:49.644Z,8.30
2022-12-23T19:29:17.972Z,8.30
2022-12-23T19:31:46.180Z,8.30
2022-12-23T19:34:15.718Z,8.30
2022-12-23T19:36:44.811Z,8.20
2022-12-23T19:39:17.273Z,8.20
2022-12-23T19:41:45.931Z,8.20
2022-12-23T19:44:15.812Z,8.20
2022-12-23T19:46:44.196Z,8.10
2022-12-23T19:49:19.136Z,8.10
2022-12-23T19:51:49.023Z,8.10
2022-12-23T19:54:17.589Z,8.10
2022-12-23T19:56:46.118Z,8.10
2022-12-23T19:59:15.689Z,8.10
2022-12-23T20:01:44.528Z,8.10
2022-12-23T20:04:12.988Z,8.10
2022-12-23T20:06:43.134Z,8.00
2022-12-23T20:09:13.652Z,8.00
2022-12-23T20:11:43.849Z,8.00
2022-12-23T20:14:13.024Z,8.00
2022-12-23T20:16:43.059Z,8.00
2022-12-23T20:19:11.470Z,8.00
2022-12-23T20:21:42.832Z,8.00
2022-12-23T20:24:11.113Z,8.00
2022-12-23T20:26:40.019Z,8.00
2022-12-23T20:29:11.484Z,8.00
2022-12-23T20:31:40.541Z,8.00
2022-12-23T20:34:14.823Z,7.90
2022-12-23T20:36:43.070Z,7.90
2022-12-23T20:39:11.355Z,7.90
2022-12-23T20:41:39.545Z,7.90
2022-12-23T20:44:37.795Z,7.90
2022-12-23T20:46:56.082Z,8.00
2022-12-23T20:49:25.766Z,7.90
2022-12-23T20:51:54.137Z,7.90
2022-12-23T20:54:27.896Z,7.90
2022-12-23T20:57:00.188Z,7.90
2022-12-23T20:59:28.372Z,7.80
2022-12-23T21:01:59.946Z,7.80
2022-12-23T21:04:29.628Z,7.80
2022-12-23T21:06:57.992Z,7.80
2022-12-23T21:09:26.254Z,7.70
2022-12-23T21:11:54.499Z,7.70
2022-12-23T21:14:22.742Z,7.70
2022-12-23T21:16:51.061Z,7.70
2022-12-23T21:19:20.629Z,7.70
2022-12-23T21:21:51.323Z,7.70
2022-12-23T21:24:20.506Z,7.70
2022-12-23T21:27:23.182Z,7.70
2022-12-23T21:29:51.492Z,7.70
2022-12-23T21:32:19.751Z,7.70
2022-12-23T21:34:48.056Z,7.70
2022-12-23T21:37:18.037Z,7.70
2022-12-23T21:39:46.240Z,7.70
2022-12-23T21:42:14.438Z,7.80
2022-12-23T21:44:42.642Z,7.80
2022-12-23T21:47:10.918Z,7.80
2022-12-23T21:49:39.302Z,7.70
2022-12-23T21:52:07.539Z,7.70
2022-12-23T21:54:37.256Z,7.70
2022-12-23T21:57:05.728Z,7.70
2022-12-23T21:59:35.428Z,7.70
2022-12-23T22:02:04.074Z,7.60
2022-12-23T22:04:32.317Z,7.60
2022-12-23T22:07:00.659Z,7.60
2022-12-23T22:09:28.860Z,7.50
2022-12-23T22:11:58.497Z,7.50
2022-12-23T22:14:26.803Z,7.50
2022-12-23T22:16:55.084Z,7.50
2022-12-23T22:19:31.137Z,7.50
2022-12-23T22:21:59.327Z,7.40
2022-12-23T22:24:27.720Z,7.50
2022-12-23T22:26:55.927Z,7.50
2022-12-23T22:29:25.528Z,7.50
2022-12-23T22:31:54.047Z,7.50
2022-12-23T22:34:24.048Z,7.50
2022-12-23T22:36:52.694Z,7.60
2022-12-23T22:39:22.103Z,7.60
2022-12-23T22:41:51.017Z,7.60
2022-12-23T22:44:19.676Z,7.50
2022-12-23T22:46:49.855Z,7.50
2022-12-23T22:49:18.453Z,7.40
2022-12-23T22:51:49.082Z,7.40
2022-12-23T22:54:17.281Z,7.50
2022-12-23T22:56:45.903Z,7.40
2022-12-23T22:59:21.765Z,7.40
2022-12-23T23:01:52.430Z,7.40
2022-12-23T23:04:20.848Z,7.40
2022-12-23T23:06:49.239Z,7.40
2022-12-23T23:09:19.546Z,7.40
2022-12-23T23:11:50.151Z,7.40
2022-12-23T23:14:18.822Z,7.40
2022-12-23T23:16:47.425Z,7.40
2022-12-23T23:19:20.454Z,7.30
2022-12-23T23:21:49.271Z,7.30
2022-12-23T23:24:17.556Z,7.30
2022-12-23T23:26:45.792Z,7.30
2022-12-23T23:29:15.418Z,7.30
2022-12-23T23:31:44.648Z,7.30
2022-12-23T23:34:13.801Z,7.30
2022-12-23T23:36:43.827Z,7.30
2022-12-23T23:39:13.415Z,7.30
2022-12-23T23:41:42.183Z,7.30
2022-12-23T23:44:11.285Z,7.30
2022-12-23T23:46:39.938Z,7.30
2022-12-23T23:49:08.548Z,7.30
2022-12-23T23:51:39.815Z,7.30
2022-12-23T23:54:09.593Z,7.30
2022-12-23T23:56:39.137Z,7.30
2022-12-23T23:59:08.921Z,7.30
